HAZ7415 ZYTX-ZMCK
Flight info
| Callsign | HAZ7415 |
|---|---|
| Flight time | 2h 29m |
| Altitude | 38100 |
| Route | OMD71D OMDUS A575 TOROV TOROV2W |
| Aircraft | A339/H-SADE1E2E3GHIJ3J5M1P2RWXY/LB2D1 |
Departure
| Time | 2026-04-25 10:23 |
|---|---|
| Airport | Shenyang Taoxian International Airport (ZYTX) |
Arrival
| Time | 2026-04-25 12:53 |
|---|---|
| Airport | Ulaanbaatar Chinggis Khaan International Airport (ZMCK) |
| Time | Latitude | Longitude | Altitude | Speed | Heading |
|---|---|---|---|---|---|
| 2026-04-25 09:57 | 41.63342 | 123.48183 | 214 ft | 0 kts | 138° |
| 2026-04-25 10:11 | 41.63343 | 123.48181 | 214 ft | 1 kts | 138° |
| 2026-04-25 10:11 | 41.63354 | 123.48168 | 214 ft | 2 kts | 136° |
| 2026-04-25 10:11 | 41.63361 | 123.48159 | 214 ft | 2 kts | 135° |
| 2026-04-25 10:11 | 41.63371 | 123.48144 | 214 ft | 2 kts | 118° |
| 2026-04-25 10:12 | 41.63377 | 123.48126 | 214 ft | 2 kts | 105° |
| 2026-04-25 10:12 | 41.63380 | 123.48106 | 214 ft | 2 kts | 92° |
| 2026-04-25 10:12 | 41.63375 | 123.48067 | 214 ft | 2 kts | 66° |
| 2026-04-25 10:13 | 41.63368 | 123.48049 | 214 ft | 2 kts | 52° |
| 2026-04-25 10:13 | 41.63363 | 123.48041 | 214 ft | 0 kts | 47° |
| 2026-04-25 10:15 | 41.63371 | 123.48053 | 214 ft | 3 kts | 47° |
| 2026-04-25 10:15 | 41.63393 | 123.48084 | 214 ft | 5 kts | 47° |
| 2026-04-25 10:15 | 41.63425 | 123.48132 | 214 ft | 8 kts | 46° |
| 2026-04-25 10:15 | 41.63472 | 123.48154 | 214 ft | 5 kts | 330° |
| 2026-04-25 10:16 | 41.63476 | 123.48148 | 214 ft | 0 kts | 310° |
| 2026-04-25 10:16 | 41.63490 | 123.48131 | 214 ft | 4 kts | 315° |
| 2026-04-25 10:16 | 41.63515 | 123.48100 | 214 ft | 5 kts | 318° |
| 2026-04-25 10:16 | 41.63551 | 123.48070 | 214 ft | 5 kts | 349° |
| 2026-04-25 10:17 | 41.63591 | 123.48095 | 214 ft | 7 kts | 47° |
| 2026-04-25 10:17 | 41.63627 | 123.48148 | 214 ft | 8 kts | 46° |
| 2026-04-25 10:17 | 41.63673 | 123.48213 | 214 ft | 10 kts | 47° |
| 2026-04-25 10:17 | 41.63726 | 123.48291 | 214 ft | 11 kts | 48° |
| 2026-04-25 10:18 | 41.63785 | 123.48379 | 214 ft | 13 kts | 47° |
| 2026-04-25 10:18 | 41.63848 | 123.48474 | 214 ft | 14 kts | 49° |
| 2026-04-25 10:18 | 41.63914 | 123.48578 | 214 ft | 14 kts | 47° |
| 2026-04-25 10:18 | 41.63985 | 123.48683 | 214 ft | 15 kts | 49° |
| 2026-04-25 10:19 | 41.64059 | 123.48796 | 214 ft | 16 kts | 48° |
| 2026-04-25 10:19 | 41.64134 | 123.48909 | 214 ft | 16 kts | 48° |
| 2026-04-25 10:19 | 41.64213 | 123.49027 | 214 ft | 17 kts | 48° |
| 2026-04-25 10:19 | 41.64294 | 123.49150 | 214 ft | 17 kts | 48° |
| 2026-04-25 10:20 | 41.64376 | 123.49273 | 214 ft | 17 kts | 48° |
| 2026-04-25 10:20 | 41.64460 | 123.49400 | 214 ft | 18 kts | 48° |
| 2026-04-25 10:20 | 41.64543 | 123.49528 | 214 ft | 15 kts | 49° |
| 2026-04-25 10:20 | 41.64601 | 123.49553 | 214 ft | 8 kts | 326° |
| 2026-04-25 10:21 | 41.64652 | 123.49503 | 214 ft | 9 kts | 322° |
| 2026-04-25 10:21 | 41.64701 | 123.49444 | 214 ft | 7 kts | 303° |
| 2026-04-25 10:21 | 41.64692 | 123.49391 | 214 ft | 6 kts | 238° |
| 2026-04-25 10:21 | 41.64681 | 123.49374 | 214 ft | 0 kts | 227° |
| 2026-04-25 10:22 | 41.64624 | 123.49289 | 214 ft | 41 kts | 228° |
| 2026-04-25 10:22 | 41.64285 | 123.48769 | 214 ft | 104 kts | 228° |
| 2026-04-25 10:23 | 41.63673 | 123.47846 | 232 ft | 153 kts | 230° |
| 2026-04-25 10:23 | 41.62960 | 123.46760 | 776 ft | 154 kts | 229° |
| 2026-04-25 10:23 | 41.62294 | 123.45732 | 1552 ft | 144 kts | 227° |
| 2026-04-25 10:23 | 41.61660 | 123.44753 | 2276 ft | 135 kts | 226° |
| 2026-04-25 10:24 | 41.61072 | 123.43855 | 2888 ft | 126 kts | 226° |
| 2026-04-25 10:24 | 41.60511 | 123.42999 | 3393 ft | 123 kts | 226° |
| 2026-04-25 10:24 | 41.59910 | 123.42091 | 3688 ft | 136 kts | 227° |
| 2026-04-25 10:24 | 41.59248 | 123.41090 | 3974 ft | 151 kts | 227° |
| 2026-04-25 10:25 | 41.58514 | 123.39973 | 4270 ft | 168 kts | 228° |
| 2026-04-25 10:25 | 41.57707 | 123.38744 | 4582 ft | 185 kts | 229° |
| 2026-04-25 10:25 | 41.57017 | 123.37212 | 4901 ft | 205 kts | 250° |
| 2026-04-25 10:25 | 41.56891 | 123.35225 | 5238 ft | 231 kts | 272° |
| 2026-04-25 10:26 | 41.57148 | 123.33047 | 5718 ft | 245 kts | 273° |
| 2026-04-25 10:26 | 41.57408 | 123.30769 | 6501 ft | 247 kts | 274° |
| 2026-04-25 10:26 | 41.57670 | 123.28532 | 7283 ft | 248 kts | 274° |
| 2026-04-25 10:26 | 41.57938 | 123.26255 | 7997 ft | 252 kts | 275° |
| 2026-04-25 10:27 | 41.58213 | 123.23954 | 8714 ft | 255 kts | 275° |
| 2026-04-25 10:27 | 41.58494 | 123.21614 | 9456 ft | 258 kts | 275° |
| 2026-04-25 10:27 | 41.58775 | 123.19265 | 10176 ft | 261 kts | 276° |
| 2026-04-25 10:27 | 41.59068 | 123.16804 | 10601 ft | 276 kts | 276° |
| 2026-04-25 10:28 | 41.59379 | 123.14185 | 10919 ft | 294 kts | 276° |
| 2026-04-25 10:28 | 41.59705 | 123.11443 | 11222 ft | 312 kts | 276° |
| 2026-04-25 10:28 | 41.60055 | 123.08504 | 11627 ft | 326 kts | 277° |
| 2026-04-25 10:28 | 41.60410 | 123.05523 | 12277 ft | 332 kts | 277° |
| 2026-04-25 10:29 | 41.60773 | 123.02465 | 13008 ft | 335 kts | 277° |
| 2026-04-25 10:29 | 41.61137 | 122.99390 | 13642 ft | 341 kts | 277° |
| 2026-04-25 10:29 | 41.61508 | 122.96236 | 14302 ft | 346 kts | 277° |
| 2026-04-25 10:29 | 41.61879 | 122.93076 | 14983 ft | 349 kts | 277° |
| 2026-04-25 10:30 | 41.62256 | 122.89861 | 15671 ft | 353 kts | 278° |
| 2026-04-25 10:30 | 41.62505 | 122.87724 | 16120 ft | 355 kts | 278° |
| 2026-04-25 10:30 | 41.63016 | 122.83353 | 17039 ft | 359 kts | 278° |
| 2026-04-25 10:30 | 41.63398 | 122.80076 | 17711 ft | 362 kts | 278° |
| 2026-04-25 10:31 | 41.63785 | 122.76737 | 18376 ft | 366 kts | 278° |
| 2026-04-25 10:31 | 41.64171 | 122.73396 | 19012 ft | 369 kts | 278° |
| 2026-04-25 10:31 | 41.64563 | 122.69991 | 19636 ft | 373 kts | 278° |
| 2026-04-25 10:31 | 41.64956 | 122.66579 | 20253 ft | 376 kts | 278° |
| 2026-04-25 10:32 | 41.65351 | 122.63133 | 20852 ft | 379 kts | 278° |
| 2026-04-25 10:32 | 41.65755 | 122.59600 | 21445 ft | 382 kts | 278° |
| 2026-04-25 10:32 | 41.66151 | 122.56126 | 22003 ft | 385 kts | 278° |
| 2026-04-25 10:32 | 41.66555 | 122.52568 | 22541 ft | 389 kts | 278° |
| 2026-04-25 10:33 | 41.66960 | 122.48994 | 23071 ft | 392 kts | 278° |
| 2026-04-25 10:33 | 41.67367 | 122.45388 | 23603 ft | 394 kts | 279° |
| 2026-04-25 10:33 | 41.67773 | 122.41785 | 24104 ft | 397 kts | 279° |
| 2026-04-25 10:33 | 41.68186 | 122.38105 | 24602 ft | 400 kts | 279° |
| 2026-04-25 10:34 | 41.68593 | 122.34463 | 25068 ft | 403 kts | 278° |
| 2026-04-25 10:34 | 41.69006 | 122.30753 | 25529 ft | 406 kts | 278° |
| 2026-04-25 10:34 | 41.69424 | 122.26999 | 25963 ft | 409 kts | 278° |
| 2026-04-25 10:34 | 41.69841 | 122.23242 | 26395 ft | 412 kts | 278° |
| 2026-04-25 10:35 | 41.70260 | 122.19444 | 26831 ft | 415 kts | 278° |
| 2026-04-25 10:35 | 41.70546 | 122.15582 | 27250 ft | 417 kts | 273° |
| 2026-04-25 10:35 | 41.70541 | 122.11743 | 27652 ft | 420 kts | 268° |
| 2026-04-25 10:35 | 41.70248 | 122.07841 | 28055 ft | 424 kts | 263° |
| 2026-04-25 10:36 | 41.69746 | 122.03970 | 28459 ft | 426 kts | 261° |
| 2026-04-25 10:36 | 41.69204 | 122.00049 | 28842 ft | 428 kts | 261° |
| 2026-04-25 10:36 | 41.68660 | 121.96159 | 29205 ft | 431 kts | 261° |
| 2026-04-25 10:36 | 41.68103 | 121.92203 | 29541 ft | 434 kts | 261° |
| 2026-04-25 10:37 | 41.67547 | 121.88248 | 29972 ft | 434 kts | 261° |
| 2026-04-25 10:37 | 41.66997 | 121.84345 | 30484 ft | 432 kts | 261° |
| 2026-04-25 10:37 | 41.66441 | 121.80411 | 31004 ft | 430 kts | 261° |
| 2026-04-25 10:37 | 41.65887 | 121.76496 | 31489 ft | 429 kts | 261° |
| 2026-04-25 10:38 | 41.65335 | 121.72603 | 31985 ft | 427 kts | 261° |
| 2026-04-25 10:38 | 41.64783 | 121.68712 | 32460 ft | 426 kts | 261° |
| 2026-04-25 10:38 | 41.64233 | 121.64854 | 32941 ft | 424 kts | 261° |
| 2026-04-25 10:38 | 41.63685 | 121.61012 | 33424 ft | 422 kts | 261° |
| 2026-04-25 10:39 | 41.63137 | 121.57184 | 33901 ft | 420 kts | 261° |
| 2026-04-25 10:39 | 41.62592 | 121.53378 | 34392 ft | 417 kts | 261° |
| 2026-04-25 10:39 | 41.62050 | 121.49614 | 34855 ft | 414 kts | 261° |
| 2026-04-25 10:39 | 41.61510 | 121.45860 | 35229 ft | 412 kts | 261° |
| 2026-04-25 10:40 | 41.60970 | 121.42117 | 35565 ft | 410 kts | 262° |
| 2026-04-25 10:40 | 41.60430 | 121.38391 | 35823 ft | 410 kts | 262° |
| 2026-04-25 10:40 | 41.59896 | 121.34706 | 36072 ft | 410 kts | 261° |
| 2026-04-25 10:40 | 41.59535 | 121.32228 | 36231 ft | 410 kts | 261° |
| 2026-04-25 10:41 | 41.58804 | 121.27216 | 36499 ft | 412 kts | 261° |
| 2026-04-25 10:41 | 41.58254 | 121.23457 | 36697 ft | 413 kts | 261° |
| 2026-04-25 10:41 | 41.57776 | 121.19736 | 36910 ft | 413 kts | 264° |
| 2026-04-25 10:41 | 41.57429 | 121.15939 | 37167 ft | 413 kts | 266° |
| 2026-04-25 10:42 | 41.57213 | 121.12085 | 37390 ft | 414 kts | 268° |
| 2026-04-25 10:42 | 41.57023 | 121.08265 | 37546 ft | 416 kts | 268° |
| 2026-04-25 10:42 | 41.56836 | 121.04460 | 37734 ft | 417 kts | 268° |
| 2026-04-25 10:42 | 41.56645 | 121.00606 | 37883 ft | 418 kts | 268° |
| 2026-04-25 10:43 | 41.56454 | 120.96724 | 37891 ft | 418 kts | 268° |
| 2026-04-25 10:43 | 41.56067 | 120.89003 | 37898 ft | 419 kts | 268° |
| 2026-04-25 10:44 | 41.55674 | 120.81279 | 37900 ft | 419 kts | 268° |
| 2026-04-25 10:44 | 41.55278 | 120.73553 | 37911 ft | 419 kts | 268° |
| 2026-04-25 10:45 | 41.54875 | 120.65818 | 37903 ft | 418 kts | 268° |
| 2026-04-25 10:45 | 41.54466 | 120.58074 | 37903 ft | 418 kts | 268° |
| 2026-04-25 10:46 | 41.54052 | 120.50379 | 37909 ft | 418 kts | 268° |
| 2026-04-25 10:46 | 41.53682 | 120.42666 | 37910 ft | 417 kts | 270° |
| 2026-04-25 10:47 | 41.53577 | 120.34988 | 37913 ft | 417 kts | 270° |
| 2026-04-25 10:47 | 41.53478 | 120.27284 | 37917 ft | 416 kts | 271° |
| 2026-04-25 10:48 | 41.53375 | 120.19630 | 37911 ft | 416 kts | 271° |
| 2026-04-25 10:48 | 41.53265 | 120.11890 | 37906 ft | 415 kts | 271° |
| 2026-04-25 10:49 | 41.53151 | 120.04233 | 37920 ft | 416 kts | 271° |
| 2026-04-25 10:49 | 41.53035 | 119.96569 | 37929 ft | 415 kts | 271° |
| 2026-04-25 10:50 | 41.52911 | 119.88889 | 37930 ft | 415 kts | 271° |
| 2026-04-25 10:50 | 41.52780 | 119.81203 | 37937 ft | 415 kts | 271° |
| 2026-04-25 10:51 | 41.52646 | 119.73512 | 37933 ft | 415 kts | 271° |
| 2026-04-25 10:51 | 41.52507 | 119.65848 | 37942 ft | 415 kts | 271° |
| 2026-04-25 10:52 | 41.52363 | 119.58205 | 37946 ft | 415 kts | 271° |
| 2026-04-25 10:52 | 41.52214 | 119.50535 | 37949 ft | 415 kts | 271° |
| 2026-04-25 10:53 | 41.52061 | 119.42896 | 37949 ft | 414 kts | 271° |
| 2026-04-25 10:53 | 41.51901 | 119.35247 | 37954 ft | 414 kts | 271° |
| 2026-04-25 10:54 | 41.51735 | 119.27618 | 37945 ft | 415 kts | 270° |
| 2026-04-25 10:54 | 41.51566 | 119.19919 | 37949 ft | 415 kts | 270° |
| 2026-04-25 10:55 | 41.51392 | 119.12256 | 37954 ft | 415 kts | 270° |
| 2026-04-25 10:55 | 41.51213 | 119.04599 | 37959 ft | 414 kts | 270° |
| 2026-04-25 10:56 | 41.51026 | 118.96924 | 37950 ft | 415 kts | 270° |
| 2026-04-25 10:56 | 41.50834 | 118.89246 | 37960 ft | 415 kts | 271° |
| 2026-04-25 10:57 | 41.50639 | 118.81615 | 37954 ft | 415 kts | 270° |
| 2026-04-25 10:57 | 41.50445 | 118.73946 | 37965 ft | 415 kts | 271° |
| 2026-04-25 10:58 | 41.50277 | 118.66301 | 37967 ft | 415 kts | 271° |
| 2026-04-25 10:58 | 41.50099 | 118.58617 | 37978 ft | 415 kts | 271° |
| 2026-04-25 10:59 | 41.50039 | 118.50964 | 37994 ft | 414 kts | 274° |
| 2026-04-25 10:59 | 41.50500 | 118.43330 | 37993 ft | 413 kts | 279° |
| 2026-04-25 11:00 | 41.51501 | 118.35806 | 37996 ft | 414 kts | 284° |
| 2026-04-25 11:00 | 41.52902 | 118.28434 | 37996 ft | 413 kts | 285° |
| 2026-04-25 11:01 | 41.54346 | 118.21013 | 38001 ft | 413 kts | 285° |
| 2026-04-25 11:01 | 41.55781 | 118.13641 | 37992 ft | 414 kts | 285° |
| 2026-04-25 11:02 | 41.57211 | 118.06252 | 37980 ft | 414 kts | 285° |
| 2026-04-25 11:02 | 41.58646 | 117.98837 | 37971 ft | 413 kts | 285° |
| 2026-04-25 11:03 | 41.60076 | 117.91398 | 37966 ft | 414 kts | 285° |
| 2026-04-25 11:03 | 41.61498 | 117.83978 | 37968 ft | 414 kts | 285° |
| 2026-04-25 11:04 | 41.62923 | 117.76520 | 37963 ft | 414 kts | 285° |
| 2026-04-25 11:04 | 41.64333 | 117.69100 | 38343 ft | 414 kts | 285° |
| 2026-04-25 11:04 | 41.64798 | 117.66646 | 38532 ft | 413 kts | 286° |
| 2026-04-25 11:05 | 41.65732 | 117.61709 | 38875 ft | 412 kts | 285° |
| 2026-04-25 11:05 | 41.66440 | 117.57970 | 39078 ft | 411 kts | 286° |
| 2026-04-25 11:05 | 41.67137 | 117.54268 | 39280 ft | 412 kts | 286° |
| 2026-04-25 11:05 | 41.67832 | 117.50586 | 39452 ft | 412 kts | 285° |
| 2026-04-25 11:06 | 41.68522 | 117.46914 | 39590 ft | 412 kts | 286° |
| 2026-04-25 11:06 | 41.69223 | 117.43175 | 39747 ft | 413 kts | 285° |
| 2026-04-25 11:06 | 41.69913 | 117.39492 | 39874 ft | 413 kts | 286° |
| 2026-04-25 11:06 | 41.70603 | 117.35792 | 39982 ft | 414 kts | 286° |
| 2026-04-25 11:07 | 41.71301 | 117.32047 | 39986 ft | 414 kts | 285° |
| 2026-04-25 11:07 | 41.72683 | 117.24621 | 39987 ft | 413 kts | 285° |
| 2026-04-25 11:08 | 41.74062 | 117.17157 | 39997 ft | 414 kts | 285° |
| 2026-04-25 11:08 | 41.75430 | 117.09752 | 39992 ft | 413 kts | 285° |
| 2026-04-25 11:09 | 41.76799 | 117.02300 | 40011 ft | 413 kts | 285° |
| 2026-04-25 11:09 | 41.78164 | 116.94843 | 40000 ft | 414 kts | 285° |
| 2026-04-25 11:10 | 41.79522 | 116.87401 | 39997 ft | 413 kts | 285° |
| 2026-04-25 11:10 | 41.80870 | 116.79955 | 40013 ft | 412 kts | 285° |
| 2026-04-25 11:11 | 41.82216 | 116.72521 | 40012 ft | 413 kts | 285° |
| 2026-04-25 11:11 | 41.83555 | 116.65070 | 40006 ft | 412 kts | 286° |
| 2026-04-25 11:12 | 41.84901 | 116.57561 | 40023 ft | 414 kts | 285° |
| 2026-04-25 11:12 | 41.86234 | 116.50107 | 40019 ft | 415 kts | 286° |
| 2026-04-25 11:13 | 41.87572 | 116.42602 | 40020 ft | 414 kts | 285° |
| 2026-04-25 11:13 | 41.88890 | 116.35150 | 40029 ft | 415 kts | 286° |
| 2026-04-25 11:14 | 41.90215 | 116.27628 | 40029 ft | 415 kts | 285° |
| 2026-04-25 11:14 | 41.91532 | 116.20134 | 40030 ft | 415 kts | 285° |
| 2026-04-25 11:15 | 41.92847 | 116.12600 | 40050 ft | 415 kts | 285° |
| 2026-04-25 11:15 | 41.94163 | 116.05089 | 40041 ft | 413 kts | 286° |
| 2026-04-25 11:16 | 41.96793 | 115.94157 | 40046 ft | 411 kts | 294° |
| 2026-04-25 11:16 | 41.99165 | 115.87207 | 40048 ft | 410 kts | 298° |
| 2026-04-25 11:17 | 42.01855 | 115.80490 | 40051 ft | 409 kts | 299° |
| 2026-04-25 11:17 | 42.04564 | 115.73790 | 40068 ft | 408 kts | 300° |
| 2026-04-25 11:18 | 42.07276 | 115.67076 | 40047 ft | 408 kts | 300° |
| 2026-04-25 11:18 | 42.09963 | 115.60412 | 40061 ft | 406 kts | 300° |
| 2026-04-25 11:19 | 42.12650 | 115.53734 | 40054 ft | 407 kts | 300° |
| 2026-04-25 11:19 | 42.15323 | 115.47073 | 40056 ft | 406 kts | 300° |
| 2026-04-25 11:20 | 42.17999 | 115.40391 | 40052 ft | 404 kts | 300° |
| 2026-04-25 11:20 | 42.20663 | 115.33719 | 40057 ft | 405 kts | 299° |
| 2026-04-25 11:21 | 42.23314 | 115.27061 | 40049 ft | 404 kts | 300° |
| 2026-04-25 11:21 | 42.25878 | 115.20377 | 40041 ft | 404 kts | 298° |
| 2026-04-25 11:22 | 42.27992 | 115.14737 | 40040 ft | 404 kts | 298° |
| 2026-04-25 11:22 | 42.30931 | 115.06876 | 40036 ft | 403 kts | 298° |
| 2026-04-25 11:23 | 42.33440 | 115.00161 | 40038 ft | 402 kts | 298° |
| 2026-04-25 11:23 | 42.35950 | 114.93434 | 40054 ft | 402 kts | 298° |
| 2026-04-25 11:24 | 42.38438 | 114.86742 | 40043 ft | 403 kts | 298° |
| 2026-04-25 11:24 | 42.40951 | 114.79971 | 40046 ft | 404 kts | 298° |
| 2026-04-25 11:25 | 42.43464 | 114.73180 | 40043 ft | 404 kts | 298° |
| 2026-04-25 11:25 | 42.45969 | 114.66402 | 40046 ft | 403 kts | 298° |
| 2026-04-25 11:26 | 42.48457 | 114.59652 | 40040 ft | 403 kts | 298° |
| 2026-04-25 11:26 | 42.50953 | 114.52862 | 40034 ft | 403 kts | 298° |
| 2026-04-25 11:27 | 42.53445 | 114.46060 | 40031 ft | 403 kts | 298° |
| 2026-04-25 11:27 | 42.55100 | 114.41534 | 40029 ft | 403 kts | 298° |
| 2026-04-25 11:28 | 42.58393 | 114.32513 | 40030 ft | 402 kts | 298° |
| 2026-04-25 11:28 | 42.60852 | 114.25751 | 40030 ft | 401 kts | 298° |
| 2026-04-25 11:29 | 42.63330 | 114.18976 | 40025 ft | 402 kts | 299° |
| 2026-04-25 11:29 | 42.65923 | 114.12273 | 40021 ft | 402 kts | 299° |
| 2026-04-25 11:30 | 42.68525 | 114.05551 | 40018 ft | 401 kts | 299° |
| 2026-04-25 11:30 | 42.71098 | 113.98865 | 40017 ft | 401 kts | 299° |
| 2026-04-25 11:31 | 42.73660 | 113.92186 | 40017 ft | 401 kts | 299° |
| 2026-04-25 11:31 | 42.76226 | 113.85468 | 40015 ft | 400 kts | 300° |
| 2026-04-25 11:32 | 42.78778 | 113.78773 | 40016 ft | 401 kts | 299° |
| 2026-04-25 11:32 | 42.81347 | 113.72027 | 40012 ft | 401 kts | 299° |
| 2026-04-25 11:33 | 42.83888 | 113.65322 | 40029 ft | 401 kts | 299° |
| 2026-04-25 11:33 | 42.86449 | 113.58556 | 40010 ft | 401 kts | 299° |
| 2026-04-25 11:34 | 42.88979 | 113.51857 | 40021 ft | 401 kts | 299° |
| 2026-04-25 11:34 | 42.91529 | 113.45081 | 40018 ft | 401 kts | 299° |
| 2026-04-25 11:35 | 42.94065 | 113.38333 | 40009 ft | 402 kts | 299° |
| 2026-04-25 11:35 | 42.96599 | 113.31561 | 40006 ft | 401 kts | 299° |
| 2026-04-25 11:36 | 42.99110 | 113.24837 | 40007 ft | 401 kts | 299° |
| 2026-04-25 11:36 | 43.01648 | 113.18048 | 40010 ft | 401 kts | 299° |
| 2026-04-25 11:37 | 43.04233 | 113.11315 | 40014 ft | 401 kts | 299° |
| 2026-04-25 11:37 | 43.06813 | 113.04591 | 40018 ft | 401 kts | 300° |
| 2026-04-25 11:38 | 43.09387 | 112.97860 | 40022 ft | 401 kts | 299° |
| 2026-04-25 11:38 | 43.11937 | 112.91160 | 40033 ft | 400 kts | 299° |
| 2026-04-25 11:39 | 43.14504 | 112.84400 | 40027 ft | 400 kts | 299° |
| 2026-04-25 11:39 | 43.17052 | 112.77670 | 40042 ft | 400 kts | 299° |
| 2026-04-25 11:40 | 43.19601 | 112.70927 | 40042 ft | 399 kts | 299° |
| 2026-04-25 11:40 | 43.22136 | 112.64202 | 40049 ft | 399 kts | 299° |
| 2026-04-25 11:41 | 43.24675 | 112.57448 | 40049 ft | 399 kts | 299° |
| 2026-04-25 11:41 | 43.27191 | 112.50737 | 40051 ft | 398 kts | 299° |
| 2026-04-25 11:42 | 43.29709 | 112.44004 | 40063 ft | 398 kts | 299° |
| 2026-04-25 11:42 | 43.32217 | 112.37277 | 40065 ft | 397 kts | 299° |
| 2026-04-25 11:43 | 43.34722 | 112.30544 | 40066 ft | 396 kts | 298° |
| 2026-04-25 11:43 | 43.37253 | 112.23853 | 40075 ft | 396 kts | 301° |
| 2026-04-25 11:44 | 43.40308 | 112.17612 | 40074 ft | 395 kts | 308° |
| 2026-04-25 11:44 | 43.43974 | 112.12006 | 40073 ft | 394 kts | 315° |
| 2026-04-25 11:45 | 43.48169 | 112.07180 | 40075 ft | 396 kts | 321° |
| 2026-04-25 11:45 | 43.52778 | 112.03069 | 40078 ft | 398 kts | 324° |
| 2026-04-25 11:46 | 43.57483 | 111.99076 | 40078 ft | 397 kts | 324° |
| 2026-04-25 11:46 | 43.62193 | 111.95090 | 40077 ft | 397 kts | 324° |
| 2026-04-25 11:47 | 43.66679 | 111.90796 | 40089 ft | 394 kts | 320° |
| 2026-04-25 11:47 | 43.70867 | 111.85953 | 40090 ft | 393 kts | 315° |
| 2026-04-25 11:48 | 43.74759 | 111.80666 | 40079 ft | 392 kts | 314° |
| 2026-04-25 11:48 | 43.78584 | 111.75310 | 40082 ft | 393 kts | 313° |
| 2026-04-25 11:49 | 43.82388 | 111.69948 | 40090 ft | 392 kts | 313° |
| 2026-04-25 11:49 | 43.86209 | 111.64547 | 40091 ft | 392 kts | 313° |
| 2026-04-25 11:50 | 43.89999 | 111.59177 | 40106 ft | 392 kts | 313° |
| 2026-04-25 11:50 | 43.93798 | 111.53790 | 40107 ft | 392 kts | 313° |
| 2026-04-25 11:51 | 43.97584 | 111.48401 | 40105 ft | 392 kts | 313° |
| 2026-04-25 11:51 | 44.01381 | 111.42986 | 40099 ft | 392 kts | 313° |
| 2026-04-25 11:52 | 44.05185 | 111.37552 | 40102 ft | 392 kts | 313° |
| 2026-04-25 11:52 | 44.08953 | 111.32159 | 40108 ft | 392 kts | 313° |
| 2026-04-25 11:53 | 44.12753 | 111.26711 | 40104 ft | 392 kts | 312° |
| 2026-04-25 11:53 | 44.16529 | 111.21287 | 40100 ft | 392 kts | 312° |
| 2026-04-25 11:54 | 44.20314 | 111.15839 | 40082 ft | 393 kts | 312° |
| 2026-04-25 11:55 | 44.25996 | 111.07642 | 40097 ft | 393 kts | 312° |
| 2026-04-25 11:55 | 44.29797 | 111.02139 | 40103 ft | 393 kts | 312° |
| 2026-04-25 11:56 | 44.33560 | 110.96682 | 40078 ft | 395 kts | 312° |
| 2026-04-25 11:56 | 44.37360 | 110.91166 | 40113 ft | 394 kts | 312° |
| 2026-04-25 11:57 | 44.41148 | 110.85654 | 40090 ft | 394 kts | 312° |
| 2026-04-25 11:57 | 44.44952 | 110.80102 | 40111 ft | 394 kts | 312° |
| 2026-04-25 11:58 | 44.48728 | 110.74588 | 40098 ft | 396 kts | 312° |
| 2026-04-25 11:58 | 44.52539 | 110.69003 | 40133 ft | 397 kts | 312° |
| 2026-04-25 11:59 | 44.56342 | 110.63426 | 40100 ft | 397 kts | 312° |
| 2026-04-25 11:59 | 44.60136 | 110.57845 | 40107 ft | 398 kts | 312° |
| 2026-04-25 12:00 | 44.65857 | 110.49412 | 40140 ft | 399 kts | 312° |
| 2026-04-25 12:01 | 44.71553 | 110.40988 | 40116 ft | 399 kts | 312° |
| 2026-04-25 12:01 | 44.75373 | 110.35326 | 40123 ft | 399 kts | 312° |
| 2026-04-25 12:02 | 44.81073 | 110.26846 | 40131 ft | 399 kts | 311° |
| 2026-04-25 12:02 | 44.84854 | 110.21212 | 40111 ft | 399 kts | 311° |
| 2026-04-25 12:03 | 44.88703 | 110.15594 | 40113 ft | 399 kts | 314° |
| 2026-04-25 12:03 | 44.92853 | 110.10438 | 40136 ft | 399 kts | 318° |
| 2026-04-25 12:04 | 44.97243 | 110.05658 | 40129 ft | 397 kts | 320° |
| 2026-04-25 12:04 | 45.01620 | 110.00948 | 40126 ft | 397 kts | 320° |
| 2026-04-25 12:05 | 45.06004 | 109.96228 | 40125 ft | 398 kts | 320° |
| 2026-04-25 12:05 | 45.10374 | 109.91514 | 40124 ft | 397 kts | 320° |
| 2026-04-25 12:06 | 45.14762 | 109.86772 | 40100 ft | 398 kts | 320° |
| 2026-04-25 12:06 | 45.19129 | 109.82042 | 40117 ft | 398 kts | 320° |
| 2026-04-25 12:07 | 45.23523 | 109.77276 | 40104 ft | 398 kts | 320° |
| 2026-04-25 12:07 | 45.27894 | 109.72526 | 40117 ft | 398 kts | 320° |
| 2026-04-25 12:08 | 45.32290 | 109.67736 | 40102 ft | 398 kts | 320° |
| 2026-04-25 12:08 | 45.36657 | 109.62974 | 40096 ft | 399 kts | 320° |
| 2026-04-25 12:09 | 45.41042 | 109.58179 | 40122 ft | 399 kts | 320° |
| 2026-04-25 12:09 | 45.45451 | 109.53348 | 40126 ft | 400 kts | 320° |
| 2026-04-25 12:10 | 45.49834 | 109.48534 | 40116 ft | 400 kts | 320° |
| 2026-04-25 12:10 | 45.54232 | 109.43697 | 40130 ft | 401 kts | 320° |
| 2026-04-25 12:11 | 45.58621 | 109.38860 | 40139 ft | 401 kts | 320° |
| 2026-04-25 12:11 | 45.63018 | 109.34004 | 40131 ft | 401 kts | 320° |
| 2026-04-25 12:12 | 45.66685 | 109.29944 | 40138 ft | 401 kts | 320° |
| 2026-04-25 12:12 | 45.71822 | 109.24250 | 40127 ft | 400 kts | 320° |
| 2026-04-25 12:13 | 45.76196 | 109.19389 | 40127 ft | 401 kts | 320° |
| 2026-04-25 12:13 | 45.80603 | 109.14481 | 40138 ft | 401 kts | 320° |
| 2026-04-25 12:14 | 45.85014 | 109.09560 | 40147 ft | 401 kts | 320° |
| 2026-04-25 12:14 | 45.89406 | 109.04645 | 40152 ft | 401 kts | 320° |
| 2026-04-25 12:15 | 45.93796 | 108.99726 | 40144 ft | 401 kts | 320° |
| 2026-04-25 12:15 | 45.98172 | 108.94814 | 40019 ft | 402 kts | 320° |
| 2026-04-25 12:16 | 46.00382 | 108.92330 | 39784 ft | 400 kts | 320° |
| 2026-04-25 12:16 | 46.02534 | 108.89906 | 39538 ft | 396 kts | 319° |
| 2026-04-25 12:16 | 46.04691 | 108.87476 | 39304 ft | 392 kts | 320° |
| 2026-04-25 12:16 | 46.06813 | 108.85083 | 39087 ft | 388 kts | 319° |
| 2026-04-25 12:17 | 46.08943 | 108.82676 | 38836 ft | 387 kts | 319° |
| 2026-04-25 12:17 | 46.11044 | 108.80299 | 38611 ft | 386 kts | 319° |
| 2026-04-25 12:17 | 46.13171 | 108.77895 | 38369 ft | 385 kts | 319° |
| 2026-04-25 12:17 | 46.15265 | 108.75520 | 38112 ft | 384 kts | 319° |
| 2026-04-25 12:18 | 46.17356 | 108.73149 | 37810 ft | 384 kts | 319° |
| 2026-04-25 12:18 | 46.19450 | 108.70773 | 37376 ft | 384 kts | 319° |
| 2026-04-25 12:18 | 46.21541 | 108.68394 | 36904 ft | 384 kts | 319° |
| 2026-04-25 12:18 | 46.23622 | 108.66026 | 36439 ft | 384 kts | 319° |
| 2026-04-25 12:19 | 46.27110 | 108.62053 | 35700 ft | 386 kts | 319° |
| 2026-04-25 12:19 | 46.29921 | 108.58846 | 35052 ft | 390 kts | 319° |
| 2026-04-25 12:19 | 46.32066 | 108.56389 | 34420 ft | 392 kts | 319° |
| 2026-04-25 12:20 | 46.34179 | 108.53970 | 33762 ft | 393 kts | 319° |
| 2026-04-25 12:20 | 46.36333 | 108.51502 | 33138 ft | 393 kts | 319° |
| 2026-04-25 12:20 | 46.38451 | 108.49078 | 32536 ft | 393 kts | 319° |
| 2026-04-25 12:20 | 46.40596 | 108.46630 | 31877 ft | 395 kts | 320° |
| 2026-04-25 12:21 | 46.42764 | 108.44154 | 31162 ft | 397 kts | 320° |
| 2026-04-25 12:21 | 46.44906 | 108.41704 | 30458 ft | 398 kts | 320° |
| 2026-04-25 12:21 | 46.47080 | 108.39214 | 29708 ft | 399 kts | 320° |
| 2026-04-25 12:21 | 46.49240 | 108.36737 | 29167 ft | 395 kts | 320° |
| 2026-04-25 12:22 | 46.51374 | 108.34288 | 28750 ft | 389 kts | 320° |
| 2026-04-25 12:22 | 46.53481 | 108.31868 | 28318 ft | 384 kts | 320° |
| 2026-04-25 12:22 | 46.55528 | 108.29514 | 27904 ft | 379 kts | 320° |
| 2026-04-25 12:22 | 46.57579 | 108.27149 | 27471 ft | 375 kts | 320° |
| 2026-04-25 12:23 | 46.59600 | 108.24818 | 27052 ft | 371 kts | 320° |
| 2026-04-25 12:23 | 46.61608 | 108.22499 | 26629 ft | 367 kts | 320° |
| 2026-04-25 12:23 | 46.63608 | 108.20186 | 26207 ft | 363 kts | 320° |
| 2026-04-25 12:23 | 46.65556 | 108.17932 | 25789 ft | 360 kts | 320° |
| 2026-04-25 12:24 | 46.67508 | 108.15671 | 25377 ft | 356 kts | 320° |
| 2026-04-25 12:24 | 46.69428 | 108.13443 | 24956 ft | 353 kts | 320° |
| 2026-04-25 12:24 | 46.71324 | 108.11243 | 24544 ft | 350 kts | 320° |
| 2026-04-25 12:24 | 46.73210 | 108.09051 | 24134 ft | 347 kts | 320° |
| 2026-04-25 12:25 | 46.75099 | 108.06856 | 23731 ft | 344 kts | 321° |
| 2026-04-25 12:25 | 46.76942 | 108.04711 | 23336 ft | 341 kts | 320° |
| 2026-04-25 12:25 | 46.78786 | 108.02563 | 22934 ft | 338 kts | 320° |
| 2026-04-25 12:25 | 46.80609 | 108.00439 | 22536 ft | 337 kts | 320° |
| 2026-04-25 12:26 | 46.82440 | 107.98301 | 22138 ft | 336 kts | 320° |
| 2026-04-25 12:26 | 46.84248 | 107.96188 | 21753 ft | 334 kts | 321° |
| 2026-04-25 12:26 | 46.86059 | 107.94070 | 21370 ft | 332 kts | 321° |
| 2026-04-25 12:26 | 46.87864 | 107.91958 | 20993 ft | 331 kts | 321° |
| 2026-04-25 12:27 | 46.89636 | 107.89879 | 20636 ft | 329 kts | 321° |
| 2026-04-25 12:27 | 46.91407 | 107.87803 | 20270 ft | 328 kts | 321° |
| 2026-04-25 12:27 | 46.93182 | 107.85722 | 19898 ft | 326 kts | 321° |
| 2026-04-25 12:27 | 46.94929 | 107.83669 | 19525 ft | 325 kts | 321° |
| 2026-04-25 12:28 | 46.96689 | 107.81599 | 19155 ft | 323 kts | 321° |
| 2026-04-25 12:28 | 46.98421 | 107.79564 | 18782 ft | 321 kts | 321° |
| 2026-04-25 12:28 | 47.00160 | 107.77515 | 18398 ft | 320 kts | 321° |
| 2026-04-25 12:28 | 47.01883 | 107.75484 | 18018 ft | 319 kts | 321° |
| 2026-04-25 12:29 | 47.03614 | 107.73441 | 17622 ft | 318 kts | 321° |
| 2026-04-25 12:29 | 47.05321 | 107.71426 | 17236 ft | 317 kts | 321° |
| 2026-04-25 12:29 | 47.07070 | 107.69467 | 16851 ft | 316 kts | 324° |
| 2026-04-25 12:29 | 47.08905 | 107.67706 | 16475 ft | 314 kts | 328° |
| 2026-04-25 12:30 | 47.10811 | 107.66152 | 16032 ft | 316 kts | 332° |
| 2026-04-25 12:30 | 47.12771 | 107.64737 | 15621 ft | 315 kts | 333° |
| 2026-04-25 12:30 | 47.14717 | 107.63354 | 15264 ft | 314 kts | 333° |
| 2026-04-25 12:30 | 47.16695 | 107.61951 | 14882 ft | 312 kts | 333° |
| 2026-04-25 12:31 | 47.18630 | 107.60579 | 14510 ft | 311 kts | 333° |
| 2026-04-25 12:31 | 47.20560 | 107.59211 | 14141 ft | 310 kts | 333° |
| 2026-04-25 12:31 | 47.22519 | 107.57822 | 13758 ft | 309 kts | 333° |
| 2026-04-25 12:31 | 47.24426 | 107.56466 | 13386 ft | 308 kts | 333° |
| 2026-04-25 12:32 | 47.26344 | 107.55102 | 13007 ft | 307 kts | 333° |
| 2026-04-25 12:32 | 47.28256 | 107.53742 | 12632 ft | 306 kts | 333° |
| 2026-04-25 12:32 | 47.30164 | 107.52383 | 12262 ft | 305 kts | 333° |
| 2026-04-25 12:32 | 47.32077 | 107.51021 | 11889 ft | 304 kts | 333° |
| 2026-04-25 12:33 | 47.33986 | 107.49659 | 11513 ft | 304 kts | 334° |
| 2026-04-25 12:33 | 47.35879 | 107.48309 | 11133 ft | 303 kts | 334° |
| 2026-04-25 12:33 | 47.37753 | 107.46969 | 10765 ft | 303 kts | 334° |
| 2026-04-25 12:33 | 47.39651 | 107.45612 | 10395 ft | 302 kts | 334° |
| 2026-04-25 12:34 | 47.41526 | 107.44271 | 10129 ft | 297 kts | 334° |
| 2026-04-25 12:34 | 47.43340 | 107.42974 | 10086 ft | 285 kts | 334° |
| 2026-04-25 12:34 | 47.45095 | 107.41717 | 10072 ft | 272 kts | 333° |
| 2026-04-25 12:34 | 47.45661 | 107.41311 | 10066 ft | 268 kts | 333° |
| 2026-04-25 12:35 | 47.48356 | 107.39377 | 10029 ft | 250 kts | 333° |
| 2026-04-25 12:35 | 47.49891 | 107.38273 | 10009 ft | 239 kts | 333° |
| 2026-04-25 12:35 | 47.51363 | 107.37215 | 9859 ft | 234 kts | 333° |
| 2026-04-25 12:35 | 47.52794 | 107.36185 | 9839 ft | 224 kts | 333° |
| 2026-04-25 12:36 | 47.54162 | 107.35191 | 9834 ft | 214 kts | 329° |
| 2026-04-25 12:36 | 47.55234 | 107.33746 | 9818 ft | 208 kts | 304° |
| 2026-04-25 12:36 | 47.55780 | 107.31781 | 9605 ft | 210 kts | 289° |
| 2026-04-25 12:36 | 47.56163 | 107.29691 | 9375 ft | 209 kts | 289° |
| 2026-04-25 12:37 | 47.56528 | 107.27656 | 9203 ft | 205 kts | 289° |
| 2026-04-25 12:37 | 47.56894 | 107.25624 | 9022 ft | 201 kts | 289° |
| 2026-04-25 12:37 | 47.57244 | 107.23676 | 8903 ft | 194 kts | 289° |
| 2026-04-25 12:37 | 47.57585 | 107.21778 | 8738 ft | 187 kts | 289° |
| 2026-04-25 12:38 | 47.57916 | 107.19946 | 8599 ft | 180 kts | 289° |
| 2026-04-25 12:38 | 47.58229 | 107.18204 | 8472 ft | 180 kts | 289° |
| 2026-04-25 12:38 | 47.58564 | 107.16366 | 8345 ft | 187 kts | 289° |
| 2026-04-25 12:38 | 47.58899 | 107.14514 | 8205 ft | 188 kts | 289° |
| 2026-04-25 12:39 | 47.59235 | 107.12644 | 8048 ft | 189 kts | 289° |
| 2026-04-25 12:39 | 47.59568 | 107.10786 | 7853 ft | 181 kts | 288° |
| 2026-04-25 12:39 | 47.59881 | 107.09037 | 7714 ft | 177 kts | 288° |
| 2026-04-25 12:39 | 47.60198 | 107.07272 | 7545 ft | 178 kts | 288° |
| 2026-04-25 12:40 | 47.60516 | 107.05499 | 7327 ft | 177 kts | 288° |
| 2026-04-25 12:40 | 47.60826 | 107.03760 | 7080 ft | 171 kts | 288° |
| 2026-04-25 12:40 | 47.61121 | 107.02106 | 6845 ft | 164 kts | 288° |
| 2026-04-25 12:40 | 47.61408 | 107.00498 | 6630 ft | 156 kts | 288° |
| 2026-04-25 12:41 | 47.61677 | 106.98994 | 6428 ft | 151 kts | 288° |
| 2026-04-25 12:41 | 47.61946 | 106.97486 | 6241 ft | 151 kts | 288° |
| 2026-04-25 12:41 | 47.62214 | 106.95982 | 6070 ft | 152 kts | 288° |
| 2026-04-25 12:41 | 47.62484 | 106.94463 | 5889 ft | 154 kts | 288° |
| 2026-04-25 12:42 | 47.62760 | 106.92920 | 5686 ft | 152 kts | 287° |
| 2026-04-25 12:42 | 47.62851 | 106.92407 | 5618 ft | 151 kts | 287° |
| 2026-04-25 12:42 | 47.63290 | 106.89931 | 5282 ft | 150 kts | 288° |
| 2026-04-25 12:42 | 47.63559 | 106.88427 | 5089 ft | 150 kts | 288° |
| 2026-04-25 12:43 | 47.63827 | 106.86942 | 4909 ft | 149 kts | 287° |
| 2026-04-25 12:43 | 47.64079 | 106.85468 | 4713 ft | 149 kts | 287° |
| 2026-04-25 12:43 | 47.64587 | 106.82569 | 4543 ft | 144 kts | 288° |
| 2026-04-25 12:44 | 47.64854 | 106.81064 | 4963 ft | 155 kts | 287° |
| 2026-04-25 12:44 | 47.65120 | 106.79559 | 5648 ft | 152 kts | 288° |
| 2026-04-25 12:44 | 47.65662 | 106.76517 | 6736 ft | 163 kts | 288° |
| 2026-04-25 12:45 | 47.65951 | 106.74826 | 7034 ft | 178 kts | 281° |
| 2026-04-25 12:45 | 47.65727 | 106.72962 | 7328 ft | 198 kts | 244° |
| 2026-04-25 12:45 | 47.63186 | 106.70660 | 7898 ft | 241 kts | 201° |
| 2026-04-25 12:46 | 47.61521 | 106.69958 | 7905 ft | 250 kts | 187° |
| 2026-04-25 12:46 | 47.59800 | 106.70308 | 7908 ft | 254 kts | 156° |
| 2026-04-25 12:46 | 47.58411 | 106.71867 | 7916 ft | 253 kts | 128° |
| 2026-04-25 12:46 | 47.57384 | 106.73958 | 7919 ft | 253 kts | 121° |
| 2026-04-25 12:47 | 47.56601 | 106.76270 | 7915 ft | 250 kts | 111° |
| 2026-04-25 12:47 | 47.55932 | 106.78626 | 7831 ft | 244 kts | 110° |
| 2026-04-25 12:47 | 47.55298 | 106.80917 | 7710 ft | 238 kts | 110° |
| 2026-04-25 12:47 | 47.54688 | 106.83148 | 7586 ft | 232 kts | 109° |
| 2026-04-25 12:48 | 47.54160 | 106.85362 | 7405 ft | 228 kts | 105° |
| 2026-04-25 12:48 | 47.53678 | 106.87625 | 7054 ft | 234 kts | 104° |
| 2026-04-25 12:48 | 47.53265 | 106.89938 | 6845 ft | 229 kts | 90° |
| 2026-04-25 12:48 | 47.53583 | 106.92134 | 6702 ft | 215 kts | 51° |
| 2026-04-25 12:49 | 47.54646 | 106.93579 | 6580 ft | 204 kts | 27° |
| 2026-04-25 12:49 | 47.55883 | 106.94423 | 6419 ft | 191 kts | 21° |
| 2026-04-25 12:49 | 47.57086 | 106.95108 | 6219 ft | 181 kts | 17° |
| 2026-04-25 12:49 | 47.58254 | 106.95636 | 6042 ft | 171 kts | 15° |
| 2026-04-25 12:50 | 47.59366 | 106.96085 | 5919 ft | 154 kts | 8° |
| 2026-04-25 12:50 | 47.60407 | 106.96142 | 5923 ft | 150 kts | 356° |
| 2026-04-25 12:50 | 47.61457 | 106.96003 | 5917 ft | 151 kts | 346° |
| 2026-04-25 12:50 | 47.62271 | 106.95104 | 5911 ft | 152 kts | 303° |
| 2026-04-25 12:51 | 47.62687 | 106.93644 | 5793 ft | 153 kts | 289° |
| 2026-04-25 12:51 | 47.62937 | 106.92131 | 5571 ft | 150 kts | 284° |
| 2026-04-25 12:51 | 47.63166 | 106.90640 | 5379 ft | 150 kts | 287° |
| 2026-04-25 12:51 | 47.63425 | 106.89137 | 5176 ft | 149 kts | 287° |
| 2026-04-25 12:52 | 47.63686 | 106.87661 | 4985 ft | 150 kts | 287° |
| 2026-04-25 12:52 | 47.63951 | 106.86182 | 4793 ft | 149 kts | 287° |
| 2026-04-25 12:52 | 47.64213 | 106.84698 | 4612 ft | 147 kts | 286° |
| 2026-04-25 12:52 | 47.64468 | 106.83252 | 4494 ft | 135 kts | 287° |
| 2026-04-25 12:53 | 47.64666 | 106.82170 | 4496 ft | 83 kts | 285° |
| 2026-04-25 12:53 | 47.64764 | 106.81576 | 4492 ft | 46 kts | 285° |
| 2026-04-25 12:53 | 47.64840 | 106.81154 | 4490 ft | 38 kts | 285° |
| 2026-04-25 12:53 | 47.64948 | 106.80862 | 4496 ft | 22 kts | 309° |
| 2026-04-25 12:54 | 47.65004 | 106.80789 | 4499 ft | 5 kts | 355° |
| 2026-04-25 12:54 | 47.65028 | 106.80798 | 4501 ft | 3 kts | 30° |
| 2026-04-25 12:54 | 47.65055 | 106.80849 | 4502 ft | 10 kts | 73° |
| 2026-04-25 12:54 | 47.65040 | 106.80995 | 4502 ft | 15 kts | 104° |
| 2026-04-25 12:55 | 47.65013 | 106.81148 | 4503 ft | 15 kts | 104° |
| 2026-04-25 12:55 | 47.65004 | 106.81200 | 4503 ft | 15 kts | 104° |
| 2026-04-25 12:55 | 47.64964 | 106.81460 | 4503 ft | 13 kts | 86° |
| 2026-04-25 12:55 | 47.64997 | 106.81577 | 4505 ft | 11 kts | 61° |
| 2026-04-25 12:56 | 47.65007 | 106.81687 | 4506 ft | 13 kts | 102° |
| 2026-04-25 12:56 | 47.64979 | 106.81850 | 4508 ft | 17 kts | 104° |
| 2026-04-25 12:56 | 47.64951 | 106.82014 | 4510 ft | 15 kts | 104° |
| 2026-04-25 12:56 | 47.64924 | 106.82162 | 4511 ft | 11 kts | 104° |
| 2026-04-25 12:57 | 47.64928 | 106.82211 | 4512 ft | 2 kts | 43° |
| 2026-04-25 12:57 | 47.64933 | 106.82216 | 4512 ft | 0 kts | 20° |
| 2026-04-25 12:57 | 47.64952 | 106.82218 | 4514 ft | 4 kts | 2° |
| 2026-04-25 12:57 | 47.64977 | 106.82217 | 4515 ft | 2 kts | 358° |
| 2026-04-25 12:58 | 47.64991 | 106.82217 | 4516 ft | 3 kts | 356° |
| 2026-04-25 12:58 | 47.65017 | 106.82214 | 4517 ft | 2 kts | 356° |
| 2026-04-25 12:58 | 47.65027 | 106.82213 | 4518 ft | 0 kts | 356° |
| 2026-04-25 12:58 | 47.65029 | 106.82212 | 4518 ft | 0 kts | 356° |